LFLB/CMF METAR and TAF weather

Enter ICAO airport designator
Station Type Date Time Source
LFLB METAR 2022/06/26 07:30 UTC NOAA

LFLB 260730Z AUTO 05004KT 010V090 9999 FEW013 22/18 Q1015 TEMPO BKN080TCU


Station Type Date Time Source
LFLB Decoded METAR 2022/06/26 07:30 UTC NOAA

Chambery / Aix-Les-Bains, France (LFLB) 45-39N 005-53E 239M
Jun 26, 2022 - 03:30 AM EDT / 2022.06.26 0730 UTC
Wind: from the NE (050 degrees) at 5 MPH (4 KT) (direction variable):0
Visibility: greater than 7 mile(s):0
Sky conditions: mostly clear
Weather: Towering cumulus clouds observed
Temperature: 71 F (22 C)
Dew Point: 64 F (18 C)
Relative Humidity: 78%
Pressure (altimeter): 29.97 in. Hg (1015 hPa)
ob: LFLB 260730Z AUTO 05004KT 010V090 9999 FEW013 22/18 Q1015 TEMPO BKN080TCU
cycle: 7

Station Type Date Time Source
LFLB TAF 2022/06/26 03:26 UTC NOAA

TAF LFLB 260200Z 2603/2703 VRB03KT CAVOK PROB30
TEMPO 2603/2609 -SHRA BKN080TCU
BECMG 2608/2610 36010KT FEW040 SCT080 PROB30
TEMPO 2614/2618 -SHRA FEW040TCU BKN070
TEMPO 2621/2703 BKN030

Example: see airport list